createdAt,value
2018-03-09T00:01:10.430Z,99.90
2018-03-09T00:03:37.929Z,99.90
2018-03-09T00:06:05.419Z,99.90
2018-03-09T00:08:32.934Z,99.90
2018-03-09T00:11:00.440Z,99.90
2018-03-09T00:13:27.983Z,99.90
2018-03-09T00:15:55.469Z,99.90
2018-03-09T00:18:22.943Z,99.90
2018-03-09T00:20:50.428Z,99.90
2018-03-09T00:23:18.683Z,99.90
2018-03-09T00:25:46.179Z,99.90
2018-03-09T00:28:14.428Z,99.90
2018-03-09T00:30:41.931Z,99.90
2018-03-09T00:33:09.436Z,99.90
2018-03-09T00:35:36.933Z,99.90
2018-03-09T00:38:05.194Z,99.90
2018-03-09T00:40:32.709Z,99.90
2018-03-09T00:43:00.187Z,99.90
2018-03-09T00:45:27.672Z,99.90
2018-03-09T00:47:55.160Z,99.90
2018-03-09T00:50:22.648Z,99.90
2018-03-09T00:52:50.131Z,99.90
2018-03-09T00:55:17.612Z,99.90
2018-03-09T00:57:45.113Z,99.90
2018-03-09T01:00:12.586Z,99.90
2018-03-09T01:02:40.077Z,99.90
2018-03-09T01:05:08.357Z,99.90
2018-03-09T01:07:36.615Z,99.90
2018-03-09T01:10:04.771Z,99.90
2018-03-09T01:12:32.327Z,99.90
2018-03-09T01:14:59.841Z,99.90
2018-03-09T01:17:27.408Z,99.90
2018-03-09T01:19:54.898Z,99.90
2018-03-09T01:22:22.425Z,99.90
2018-03-09T01:24:49.918Z,99.90
2018-03-09T01:27:17.420Z,99.90
2018-03-09T01:29:45.693Z,99.90
2018-03-09T01:32:13.205Z,99.90
2018-03-09T01:34:40.713Z,99.90
2018-03-09T01:37:08.981Z,99.90
2018-03-09T01:39:37.239Z,99.90
2018-03-09T01:42:04.752Z,99.90
2018-03-09T01:44:32.236Z,99.90
2018-03-09T01:46:59.739Z,99.90
2018-03-09T01:49:27.218Z,99.90
2018-03-09T01:51:54.715Z,99.90
2018-03-09T01:54:22.196Z,99.90
2018-03-09T01:56:50.474Z,99.90
2018-03-09T01:59:19.021Z,99.90
2018-03-09T02:01:46.568Z,99.90
2018-03-09T02:04:14.096Z,99.90
2018-03-09T02:06:41.577Z,99.90
2018-03-09T02:09:09.060Z,99.90
2018-03-09T02:11:36.587Z,99.90
2018-03-09T02:14:04.069Z,99.90
2018-03-09T02:16:31.598Z,99.90
2018-03-09T02:18:59.091Z,99.90
2018-03-09T02:21:26.581Z,99.90
2018-03-09T02:23:54.286Z,99.90
2018-03-09T02:26:21.786Z,99.90
2018-03-09T02:28:49.318Z,99.90
2018-03-09T02:31:16.832Z,99.90
2018-03-09T02:33:44.379Z,99.90
2018-03-09T02:36:12.642Z,99.90
2018-03-09T02:38:40.153Z,99.90
2018-03-09T02:41:07.675Z,99.90
2018-03-09T02:43:35.213Z,99.90
2018-03-09T02:46:02.713Z,99.90
2018-03-09T02:48:30.199Z,99.90
2018-03-09T02:50:57.715Z,99.90
2018-03-09T02:53:25.197Z,99.90
2018-03-09T02:55:52.738Z,99.90
2018-03-09T02:58:20.250Z,99.90
2018-03-09T03:00:47.769Z,99.90
2018-03-09T03:03:15.259Z,99.90
2018-03-09T03:05:42.785Z,99.90
2018-03-09T03:08:10.263Z,99.90
2018-03-09T03:10:37.779Z,99.90
2018-03-09T03:13:05.259Z,99.90
2018-03-09T03:15:32.752Z,99.90
2018-03-09T03:18:00.242Z,99.90
2018-03-09T03:20:28.507Z,99.90
2018-03-09T03:22:56.772Z,99.90
2018-03-09T03:25:24.257Z,99.90
2018-03-09T03:27:51.771Z,99.90
2018-03-09T03:30:19.259Z,99.90
2018-03-09T03:32:46.740Z,99.90
2018-03-09T03:35:14.488Z,99.90
2018-03-09T03:37:42.008Z,99.90
2018-03-09T03:40:09.497Z,99.90
2018-03-09T03:42:37.768Z,99.90
2018-03-09T03:45:06.046Z,99.90
2018-03-09T03:47:34.344Z,99.90
2018-03-09T03:50:01.878Z,99.90
2018-03-09T03:52:29.381Z,99.90
2018-03-09T03:54:56.919Z,99.90
2018-03-09T03:57:24.420Z,99.90
2018-03-09T03:59:51.906Z,99.90
2018-03-09T04:02:19.384Z,99.90
2018-03-09T04:04:47.636Z,99.90
2018-03-09T04:07:15.189Z,99.90
2018-03-09T04:09:42.702Z,99.90
2018-03-09T04:12:10.209Z,99.90
2018-03-09T04:14:37.679Z,99.90
2018-03-09T04:17:05.199Z,99.90
2018-03-09T04:19:32.721Z,99.90
2018-03-09T04:22:01.376Z,99.90
2018-03-09T04:24:29.647Z,99.90
2018-03-09T04:26:57.137Z,99.90
2018-03-09T04:29:24.627Z,99.90
2018-03-09T04:31:52.107Z,99.90
2018-03-09T04:34:19.626Z,99.90
2018-03-09T04:36:47.127Z,99.90
2018-03-09T04:39:14.651Z,99.90
2018-03-09T04:41:42.132Z,99.90
2018-03-09T04:44:09.632Z,99.90
2018-03-09T04:46:37.893Z,99.90
2018-03-09T04:49:06.158Z,99.90
2018-03-09T04:51:33.654Z,99.90
2018-03-09T04:54:01.148Z,99.90
2018-03-09T04:56:28.673Z,99.90
2018-03-09T04:58:56.163Z,99.90
2018-03-09T05:01:23.679Z,99.90
2018-03-09T05:03:51.172Z,99.90
2018-03-09T05:06:18.663Z,99.90
2018-03-09T05:08:46.935Z,99.90
2018-03-09T05:11:14.415Z,99.90
2018-03-09T05:13:42.682Z,99.90
2018-03-09T05:16:10.951Z,99.90
2018-03-09T05:18:39.187Z,99.90
2018-03-09T05:21:06.690Z,99.90
2018-03-09T05:23:34.996Z,99.90
2018-03-09T05:26:02.495Z,99.90
2018-03-09T05:28:29.970Z,99.90
2018-03-09T05:30:57.487Z,99.90
2018-03-09T05:33:24.992Z,99.90
2018-03-09T05:35:52.534Z,99.90
2018-03-09T05:38:20.023Z,99.90
2018-03-09T05:40:47.517Z,99.90
2018-03-09T05:43:15.017Z,99.90
2018-03-09T05:45:42.536Z,99.90
2018-03-09T05:48:10.067Z,99.90
2018-03-09T05:50:37.612Z,99.90
2018-03-09T05:53:05.861Z,99.90
2018-03-09T05:55:33.360Z,99.90
2018-03-09T05:58:00.878Z,99.90
2018-03-09T06:00:28.356Z,99.90
2018-03-09T06:02:56.647Z,99.90
2018-03-09T06:05:24.147Z,99.90
2018-03-09T06:07:51.648Z,99.90
2018-03-09T06:10:19.923Z,99.90
2018-03-09T06:12:48.162Z,99.90
2018-03-09T06:15:15.672Z,99.90
2018-03-09T06:17:43.165Z,99.90
2018-03-09T06:20:10.668Z,99.90
2018-03-09T06:22:38.197Z,99.90
2018-03-09T06:25:05.684Z,99.90
2018-03-09T06:27:38.820Z,99.90
2018-03-09T06:30:06.312Z,99.90
2018-03-09T06:32:33.793Z,99.90
2018-03-09T06:35:02.093Z,99.90
2018-03-09T06:37:29.579Z,99.90
2018-03-09T06:39:57.060Z,99.90
2018-03-09T06:42:24.579Z,99.90
2018-03-09T06:44:52.834Z,99.90
2018-03-09T06:47:20.369Z,99.90
2018-03-09T06:49:48.643Z,99.90
2018-03-09T06:52:16.178Z,99.90
2018-03-09T06:54:43.656Z,99.90
2018-03-09T06:57:11.152Z,99.90
2018-03-09T06:59:38.684Z,99.90
2018-03-09T07:02:06.184Z,99.90
2018-03-09T07:04:33.690Z,99.90
2018-03-09T07:07:01.180Z,99.90
2018-03-09T07:09:28.715Z,99.90
2018-03-09T07:11:56.234Z,99.90
2018-03-09T07:14:23.715Z,99.90
2018-03-09T07:16:51.212Z,99.90
2018-03-09T07:19:18.676Z,99.90
2018-03-09T07:21:46.164Z,99.90
2018-03-09T07:24:13.730Z,99.90
2018-03-09T07:26:41.255Z,99.90
2018-03-09T07:29:15.063Z,99.90
2018-03-09T07:31:42.544Z,99.90
2018-03-09T07:34:10.037Z,99.90
2018-03-09T07:36:37.546Z,99.90
2018-03-09T07:39:05.023Z,99.90
2018-03-09T07:41:32.936Z,99.90
2018-03-09T07:44:00.494Z,99.90
2018-03-09T07:46:28.127Z,99.90
2018-03-09T07:48:55.621Z,99.90
2018-03-09T07:51:23.110Z,99.90
2018-03-09T07:53:50.627Z,99.90
2018-03-09T07:56:18.142Z,99.90
2018-03-09T07:58:45.623Z,99.90
2018-03-09T08:01:13.137Z,99.90
2018-03-09T08:03:40.636Z,99.90
2018-03-09T08:06:08.152Z,99.90
2018-03-09T08:08:35.716Z,99.90
2018-03-09T08:11:03.430Z,99.90
2018-03-09T08:13:31.691Z,99.90
2018-03-09T08:15:59.223Z,99.90
2018-03-09T08:18:26.777Z,99.90
2018-03-09T08:20:54.311Z,99.90
2018-03-09T08:23:21.848Z,99.90
2018-03-09T08:25:50.188Z,99.90
2018-03-09T08:28:17.656Z,99.90
2018-03-09T08:30:45.193Z,99.90
2018-03-09T08:33:12.979Z,99.90
2018-03-09T08:35:40.483Z,99.90
2018-03-09T08:38:08.014Z,99.90
2018-03-09T08:40:36.292Z,99.90
2018-03-09T08:43:04.579Z,99.90
2018-03-09T08:45:32.079Z,99.90
2018-03-09T08:47:59.648Z,99.90
2018-03-09T08:50:27.209Z,99.90
2018-03-09T08:52:54.683Z,99.90
2018-03-09T08:55:22.182Z,99.90
2018-03-09T08:57:49.693Z,99.90
2018-03-09T09:00:17.215Z,99.90
2018-03-09T09:02:44.746Z,99.90
2018-03-09T09:05:12.768Z,99.90
2018-03-09T09:07:40.280Z,99.90
2018-03-09T09:10:14.027Z,99.90
2018-03-09T09:12:41.536Z,99.90
2018-03-09T09:15:09.024Z,99.90
2018-03-09T09:17:36.498Z,99.90
2018-03-09T09:20:03.991Z,99.90
2018-03-09T09:22:38.687Z,99.90
2018-03-09T09:25:06.242Z,99.90
2018-03-09T09:27:33.790Z,99.90
2018-03-09T09:30:03.254Z,99.70
2018-03-09T09:32:30.779Z,99.50
2018-03-09T09:34:59.213Z,99.30
2018-03-09T09:37:27.155Z,99.30
2018-03-09T09:39:55.436Z,99.40
2018-03-09T09:42:22.964Z,99.40
2018-03-09T09:44:50.521Z,99.40
2018-03-09T09:47:18.012Z,98.90
2018-03-09T09:49:53.026Z,98.90
2018-03-09T09:52:20.586Z,98.70
2018-03-09T09:54:48.879Z,98.90
2018-03-09T09:57:17.160Z,98.80
2018-03-09T09:59:44.676Z,98.70
2018-03-09T10:02:12.182Z,98.40
2018-03-09T10:04:39.688Z,98.70
2018-03-09T10:07:07.182Z,98.70
2018-03-09T10:09:35.462Z,98.30
2018-03-09T10:12:03.725Z,97.90
2018-03-09T10:14:32.043Z,98.30
2018-03-09T10:16:59.561Z,98.20
2018-03-09T10:19:27.039Z,97.40
2018-03-09T10:21:54.535Z,98.10
2018-03-09T10:24:22.326Z,97.40
2018-03-09T10:26:49.836Z,98.00
2018-03-09T10:29:17.332Z,98.20
2018-03-09T10:31:44.842Z,98.50
2018-03-09T10:34:12.336Z,98.10
2018-03-09T10:36:39.822Z,98.10
2018-03-09T10:39:07.338Z,98.40
2018-03-09T10:41:34.841Z,97.90
2018-03-09T10:44:03.170Z,97.50
2018-03-09T10:46:31.431Z,97.60
2018-03-09T10:48:58.947Z,97.50
2018-03-09T10:51:26.450Z,97.40
2018-03-09T10:53:53.950Z,97.70
2018-03-09T10:56:21.450Z,98.10
2018-03-09T10:58:48.972Z,97.50
2018-03-09T11:01:16.472Z,98.00
2018-03-09T11:03:44.005Z,97.40
2018-03-09T11:06:11.541Z,97.50
2018-03-09T11:08:39.037Z,97.20
2018-03-09T11:11:06.538Z,97.50
2018-03-09T11:13:34.082Z,97.30
2018-03-09T11:16:01.531Z,97.10
2018-03-09T11:18:28.996Z,96.80
2018-03-09T11:20:56.479Z,97.40
2018-03-09T11:23:23.990Z,97.40
2018-03-09T11:25:51.476Z,97.70
2018-03-09T11:28:18.966Z,98.70
2018-03-09T11:30:46.449Z,98.90
2018-03-09T11:33:13.979Z,98.90
2018-03-09T11:35:41.475Z,99.10
2018-03-09T11:38:08.975Z,99.10
2018-03-09T11:40:36.500Z,99.10
2018-03-09T11:43:04.000Z,99.30
2018-03-09T11:45:31.497Z,99.50
2018-03-09T11:47:59.787Z,99.90
2018-03-09T11:50:27.323Z,99.90
2018-03-09T11:52:55.619Z,99.90
2018-03-09T11:55:23.141Z,99.90
2018-03-09T11:57:50.647Z,99.90
2018-03-09T12:00:18.198Z,99.90
2018-03-09T12:02:45.704Z,99.90
2018-03-09T12:05:13.243Z,99.60
2018-03-09T12:07:40.752Z,99.70
2018-03-09T12:10:08.223Z,99.10
2018-03-09T12:12:35.754Z,99.40
2018-03-09T12:15:03.270Z,99.80
2018-03-09T12:17:30.786Z,99.90
2018-03-09T12:19:58.270Z,99.90
2018-03-09T12:22:25.760Z,99.90
2018-03-09T12:24:53.266Z,99.90
2018-03-09T12:27:20.762Z,99.90
2018-03-09T12:29:48.295Z,99.90
2018-03-09T12:32:16.431Z,99.90
2018-03-09T12:34:43.924Z,99.90
2018-03-09T12:37:11.881Z,99.90
2018-03-09T12:39:39.389Z,99.90
2018-03-09T12:42:06.901Z,99.90
2018-03-09T12:44:34.404Z,99.90
2018-03-09T12:47:02.653Z,99.90
2018-03-09T12:49:30.152Z,99.90
2018-03-09T12:51:57.648Z,99.90
2018-03-09T12:54:25.158Z,99.90
2018-03-09T12:56:52.658Z,99.90
2018-03-09T12:59:20.483Z,99.90
2018-03-09T13:01:47.984Z,99.90
2018-03-09T13:04:15.477Z,99.90
2018-03-09T13:06:42.968Z,99.90
2018-03-09T13:09:11.315Z,99.90
2018-03-09T13:11:38.844Z,99.90
2018-03-09T13:14:12.117Z,99.90
2018-03-09T13:16:55.716Z,99.90
2018-03-09T13:19:23.248Z,99.90
2018-03-09T13:21:50.744Z,99.90
2018-03-09T13:24:18.231Z,99.90
2018-03-09T13:26:46.534Z,99.90
2018-03-09T13:29:14.004Z,99.90
2018-03-09T13:31:41.503Z,99.90
2018-03-09T13:34:09.032Z,99.90
2018-03-09T13:36:36.556Z,99.90
2018-03-09T13:39:04.075Z,99.90
2018-03-09T13:41:31.587Z,99.90
2018-03-09T13:43:59.128Z,99.90
2018-03-09T13:46:26.635Z,99.90
2018-03-09T13:48:54.117Z,99.90
2018-03-09T13:51:21.651Z,99.90
2018-03-09T13:53:49.157Z,99.90
2018-03-09T13:56:16.644Z,99.90
2018-03-09T13:58:44.126Z,99.90
2018-03-09T14:01:11.624Z,99.90
2018-03-09T14:03:39.175Z,99.90
2018-03-09T14:06:06.644Z,99.90
2018-03-09T14:08:34.166Z,99.90
2018-03-09T14:11:02.421Z,99.90
2018-03-09T14:13:29.882Z,99.90
2018-03-09T14:15:57.405Z,99.90
2018-03-09T14:18:24.908Z,99.90
2018-03-09T14:20:52.552Z,99.90
2018-03-09T14:23:19.896Z,99.90
2018-03-09T14:25:47.381Z,99.90
2018-03-09T14:28:14.871Z,99.90
2018-03-09T14:30:42.375Z,99.90
2018-03-09T14:33:09.878Z,99.90
2018-03-09T14:35:38.154Z,99.90
2018-03-09T14:38:12.711Z,99.90
2018-03-09T14:40:40.210Z,99.90
2018-03-09T14:43:07.701Z,99.90
2018-03-09T14:45:35.972Z,99.90
2018-03-09T14:48:04.278Z,99.90
2018-03-09T14:50:31.726Z,99.90
2018-03-09T14:52:59.210Z,99.90
2018-03-09T14:55:26.685Z,99.90
2018-03-09T14:57:54.229Z,99.90
2018-03-09T15:00:21.700Z,99.90
2018-03-09T15:02:49.222Z,99.90
2018-03-09T15:05:16.706Z,99.90
2018-03-09T15:07:44.195Z,99.90
2018-03-09T15:10:12.470Z,99.90
2018-03-09T15:12:40.751Z,99.90
2018-03-09T15:15:08.257Z,99.90
2018-03-09T15:17:35.984Z,99.90
2018-03-09T15:20:03.461Z,99.90
2018-03-09T15:22:30.958Z,99.90
2018-03-09T15:24:58.445Z,99.90
2018-03-09T15:27:25.976Z,99.90
2018-03-09T15:29:53.458Z,99.90
2018-03-09T15:32:20.938Z,99.90
2018-03-09T15:34:54.042Z,99.90
2018-03-09T15:37:21.506Z,99.90
2018-03-09T15:39:49.018Z,99.90
2018-03-09T15:42:17.270Z,99.90
2018-03-09T15:44:44.754Z,99.90
2018-03-09T15:47:12.330Z,99.90
2018-03-09T15:49:39.821Z,99.90
2018-03-09T15:52:07.656Z,99.90
2018-03-09T15:54:35.917Z,99.90
2018-03-09T15:57:04.193Z,99.90
2018-03-09T15:59:32.492Z,99.90
2018-03-09T16:01:59.997Z,99.90
2018-03-09T16:04:27.504Z,99.90
2018-03-09T16:06:54.981Z,99.90
2018-03-09T16:09:22.468Z,99.90
2018-03-09T16:11:50.016Z,99.90
2018-03-09T16:14:17.490Z,99.90
2018-03-09T16:16:44.993Z,99.90
2018-03-09T16:19:12.490Z,99.90
2018-03-09T16:21:40.002Z,99.90
2018-03-09T16:24:08.280Z,99.90
2018-03-09T16:26:36.585Z,99.90
2018-03-09T16:29:04.115Z,99.90
2018-03-09T16:31:31.611Z,99.90
2018-03-09T16:33:59.120Z,99.90
2018-03-09T16:36:27.850Z,99.90
2018-03-09T16:38:55.343Z,99.90
2018-03-09T16:41:22.848Z,99.90
2018-03-09T16:43:50.364Z,99.90
2018-03-09T16:46:17.877Z,99.90
2018-03-09T16:48:45.383Z,99.90
2018-03-09T16:51:12.915Z,99.90
2018-03-09T16:53:40.417Z,99.90
2018-03-09T16:56:08.667Z,99.90
2018-03-09T16:58:36.169Z,99.90
2018-03-09T17:01:03.728Z,99.90
2018-03-09T17:03:31.207Z,99.90
2018-03-09T17:05:58.723Z,99.90
2018-03-09T17:08:27.001Z,99.90
2018-03-09T17:10:55.249Z,99.90
2018-03-09T17:13:22.785Z,99.90
2018-03-09T17:15:50.287Z,99.90
2018-03-09T17:18:18.555Z,99.90
2018-03-09T17:20:46.825Z,99.90
2018-03-09T17:23:14.300Z,99.90
2018-03-09T17:25:42.591Z,99.90
2018-03-09T17:28:10.090Z,99.90
2018-03-09T17:30:37.600Z,99.90
2018-03-09T17:33:05.100Z,99.90
2018-03-09T17:35:32.589Z,99.90
2018-03-09T17:38:00.099Z,99.90
2018-03-09T17:40:27.587Z,99.90
2018-03-09T17:42:55.133Z,99.90
2018-03-09T17:45:22.653Z,99.90
2018-03-09T17:47:50.150Z,99.90
2018-03-09T17:50:17.643Z,99.90
2018-03-09T17:52:45.891Z,99.90
2018-03-09T17:55:13.424Z,99.90
2018-03-09T17:57:40.939Z,99.90
2018-03-09T18:00:08.423Z,99.90
2018-03-09T18:02:35.923Z,99.90
2018-03-09T18:05:03.405Z,99.90
2018-03-09T18:07:30.929Z,99.90
2018-03-09T18:09:58.434Z,99.90
2018-03-09T18:12:26.722Z,99.90
2018-03-09T18:14:54.228Z,99.90
2018-03-09T18:17:21.744Z,99.90
2018-03-09T18:19:49.266Z,99.90
2018-03-09T18:22:16.786Z,99.90
2018-03-09T18:24:44.272Z,99.90
2018-03-09T18:27:11.801Z,99.90
2018-03-09T18:29:39.307Z,99.90
2018-03-09T18:32:06.855Z,99.90
2018-03-09T18:34:34.352Z,99.90
2018-03-09T18:37:01.848Z,99.90
2018-03-09T18:39:29.367Z,99.90
2018-03-09T18:41:57.723Z,99.90
2018-03-09T18:44:25.186Z,99.90
2018-03-09T18:46:52.929Z,99.90
2018-03-09T18:49:20.410Z,99.90
2018-03-09T18:51:48.690Z,99.90
2018-03-09T18:54:16.258Z,99.90
2018-03-09T18:56:43.793Z,99.90
2018-03-09T18:59:12.079Z,99.90
2018-03-09T19:01:40.344Z,99.90
2018-03-09T19:04:08.622Z,99.90
2018-03-09T19:06:36.122Z,99.90
2018-03-09T19:09:03.644Z,99.90
2018-03-09T19:11:31.937Z,99.90
2018-03-09T19:13:59.460Z,99.90
2018-03-09T19:16:27.016Z,99.90
2018-03-09T19:18:54.514Z,99.90
2018-03-09T19:21:22.046Z,99.90
2018-03-09T19:23:49.551Z,99.90
2018-03-09T19:26:17.023Z,99.90
2018-03-09T19:28:44.551Z,99.90
2018-03-09T19:31:12.058Z,99.90
2018-03-09T19:33:39.650Z,99.90
2018-03-09T19:36:07.185Z,99.90
2018-03-09T19:38:35.524Z,99.90
2018-03-09T19:41:03.033Z,99.90
2018-03-09T19:43:31.347Z,99.90
2018-03-09T19:45:59.613Z,99.90
2018-03-09T19:48:27.132Z,99.90
2018-03-09T19:50:54.626Z,99.90
2018-03-09T19:53:22.142Z,99.90
2018-03-09T19:55:49.629Z,99.90
2018-03-09T19:58:17.941Z,99.90
2018-03-09T20:00:45.435Z,99.90
2018-03-09T20:03:12.922Z,99.90
2018-03-09T20:05:40.700Z,99.90
2018-03-09T20:08:08.190Z,99.90
2018-03-09T20:10:35.686Z,99.90
2018-03-09T20:13:03.186Z,99.90
2018-03-09T20:15:30.700Z,99.90
2018-03-09T20:17:59.011Z,99.90
2018-03-09T20:20:26.499Z,99.90
2018-03-09T20:22:53.998Z,99.90
2018-03-09T20:25:21.569Z,99.90
2018-03-09T20:27:49.076Z,99.90
2018-03-09T20:30:16.642Z,99.90
2018-03-09T20:32:44.178Z,99.90
2018-03-09T20:35:11.698Z,99.90
2018-03-09T20:37:39.970Z,99.90
2018-03-09T20:40:07.476Z,99.90
2018-03-09T20:42:35.035Z,99.90
2018-03-09T20:45:02.537Z,99.90
2018-03-09T20:47:30.069Z,99.90
2018-03-09T20:49:57.575Z,99.90
2018-03-09T20:52:25.059Z,99.90
2018-03-09T20:54:52.588Z,99.90
2018-03-09T20:57:20.106Z,99.90
2018-03-09T20:59:47.638Z,99.90
2018-03-09T21:02:15.228Z,99.90
2018-03-09T21:04:42.714Z,99.90
2018-03-09T21:07:10.259Z,99.90
2018-03-09T21:09:37.753Z,99.90
2018-03-09T21:12:05.291Z,99.90
2018-03-09T21:14:33.559Z,99.90
2018-03-09T21:17:01.807Z,99.90
2018-03-09T21:19:29.332Z,99.90
2018-03-09T21:21:56.823Z,99.90
2018-03-09T21:24:24.351Z,99.90
2018-03-09T21:26:51.899Z,99.90
2018-03-09T21:29:19.399Z,99.90
2018-03-09T21:31:46.914Z,99.90
2018-03-09T21:34:14.395Z,99.90
2018-03-09T21:36:41.921Z,99.90
2018-03-09T21:39:09.411Z,99.90
2018-03-09T21:41:36.905Z,99.90
2018-03-09T21:44:04.410Z,99.90
2018-03-09T21:46:31.901Z,99.90
2018-03-09T21:48:59.416Z,99.90
2018-03-09T21:51:26.917Z,99.90
2018-03-09T21:53:54.403Z,99.90
2018-03-09T21:56:22.683Z,99.90
2018-03-09T21:58:50.187Z,99.90
2018-03-09T22:01:17.693Z,99.90
2018-03-09T22:03:45.190Z,99.90
2018-03-09T22:06:12.670Z,99.90
2018-03-09T22:08:40.182Z,99.90
2018-03-09T22:11:07.654Z,99.90
2018-03-09T22:13:35.173Z,99.90
2018-03-09T22:16:02.671Z,99.90
2018-03-09T22:18:30.163Z,99.90
2018-03-09T22:20:58.433Z,99.90
2018-03-09T22:23:26.692Z,99.90
2018-03-09T22:25:54.198Z,99.90
2018-03-09T22:28:21.723Z,99.90
2018-03-09T22:30:49.210Z,99.90
2018-03-09T22:33:16.710Z,99.90
2018-03-09T22:35:44.209Z,99.90
2018-03-09T22:38:11.716Z,99.90
2018-03-09T22:40:39.203Z,99.90
2018-03-09T22:43:06.702Z,99.90
2018-03-09T22:45:34.199Z,99.90
2018-03-09T22:48:01.691Z,99.90
2018-03-09T22:50:29.205Z,99.90
2018-03-09T22:52:56.696Z,99.90
2018-03-09T22:55:24.217Z,99.90
2018-03-09T22:57:51.714Z,99.90
2018-03-09T23:00:19.235Z,99.90
2018-03-09T23:02:46.744Z,99.90
2018-03-09T23:05:15.094Z,99.90
2018-03-09T23:07:42.574Z,99.90
2018-03-09T23:10:10.065Z,99.90
2018-03-09T23:12:38.296Z,99.90
2018-03-09T23:15:05.791Z,99.90
2018-03-09T23:17:34.052Z,99.90
2018-03-09T23:20:01.546Z,99.90
2018-03-09T23:22:29.803Z,99.90
2018-03-09T23:24:58.055Z,99.90
2018-03-09T23:27:25.543Z,99.90
2018-03-09T23:29:53.824Z,99.90
2018-03-09T23:32:22.106Z,99.90
2018-03-09T23:34:50.362Z,99.90
2018-03-09T23:37:18.604Z,99.90
2018-03-09T23:39:46.094Z,99.90
2018-03-09T23:42:14.354Z,99.90
2018-03-09T23:44:41.846Z,99.90
2018-03-09T23:47:10.104Z,99.90
2018-03-09T23:49:37.610Z,99.90
2018-03-09T23:52:05.177Z,99.90
2018-03-09T23:54:32.674Z,99.90
2018-03-09T23:57:00.953Z,99.90
2018-03-09T23:59:29.228Z,99.90
